sensor_id;sensor_type;location;lat;lon;timestamp;pressure;altitude;pressure_sealevel;temperature;humidity
48563;BME280;34981;49.104;11.396;2023-03-31T00:02:22;99179.31;;;6.14;100.00
48563;BME280;34981;49.104;11.396;2023-03-31T00:04:49;99194.03;;;6.18;100.00
48563;BME280;34981;49.104;11.396;2023-03-31T00:07:19;99200.88;;;6.21;100.00
48563;BME280;34981;49.104;11.396;2023-03-31T00:09:48;99168.94;;;5.95;100.00
48563;BME280;34981;49.104;11.396;2023-03-31T00:12:15;99181.81;;;6.08;100.00
48563;BME280;34981;49.104;11.396;2023-03-31T00:14:43;99186.69;;;6.12;100.00
48563;BME280;34981;49.104;11.396;2023-03-31T00:17:10;99166.94;;;5.97;100.00
48563;BME280;34981;49.104;11.396;2023-03-31T00:19:38;99167.94;;;5.96;100.00
48563;BME280;34981;49.104;11.396;2023-03-31T00:22:06;99162.75;;;5.95;100.00
48563;BME280;34981;49.104;11.396;2023-03-31T00:24:34;99152.50;;;5.82;100.00
48563;BME280;34981;49.104;11.396;2023-03-31T00:27:01;99151.66;;;5.81;100.00
48563;BME280;34981;49.104;11.396;2023-03-31T00:29:29;99157.16;;;5.80;100.00
48563;BME280;34981;49.104;11.396;2023-03-31T00:31:57;99148.66;;;5.76;100.00
48563;BME280;34981;49.104;11.396;2023-03-31T00:34:26;99149.31;;;5.78;100.00
48563;BME280;34981;49.104;11.396;2023-03-31T00:36:53;99157.16;;;5.80;100.00
48563;BME280;34981;49.104;11.396;2023-03-31T00:39:22;99151.13;;;5.78;100.00
48563;BME280;34981;49.104;11.396;2023-03-31T00:41:50;99164.03;;;5.82;100.00
48563;BME280;34981;49.104;11.396;2023-03-31T00:44:19;99156.81;;;5.75;100.00
48563;BME280;34981;49.104;11.396;2023-03-31T00:49:37;99167.84;;;5.80;100.00
48563;BME280;34981;49.104;11.396;2023-03-31T00:54:39;99163.44;;;5.71;100.00
48563;BME280;34981;49.104;11.396;2023-03-31T00:57:08;99155.28;;;5.72;100.00
48563;BME280;34981;49.104;11.396;2023-03-31T00:59:37;99153.47;;;5.73;100.00
48563;BME280;34981;49.104;11.396;2023-03-31T01:02:06;99151.13;;;5.78;100.00
48563;BME280;34981;49.104;11.396;2023-03-31T01:04:34;99147.81;;;5.76;100.00
48563;BME280;34981;49.104;11.396;2023-03-31T01:07:13;99141.28;;;5.78;100.00
48563;BME280;34981;49.104;11.396;2023-03-31T01:09:43;99143.31;;;5.76;100.00
48563;BME280;34981;49.104;11.396;2023-03-31T01:12:14;99141.63;;;5.75;100.00
48563;BME280;34981;49.104;11.396;2023-03-31T01:14:42;99140.25;;;5.71;100.00
48563;BME280;34981;49.104;11.396;2023-03-31T01:17:09;99128.06;;;5.61;100.00
48563;BME280;34981;49.104;11.396;2023-03-31T01:19:48;99113.00;;;5.52;100.00
48563;BME280;34981;49.104;11.396;2023-03-31T01:22:33;99110.38;;;5.60;100.00
48563;BME280;34981;49.104;11.396;2023-03-31T01:26:14;99100.69;;;5.59;100.00
48563;BME280;34981;49.104;11.396;2023-03-31T01:28:23;99087.31;;;5.51;100.00
48563;BME280;34981;49.104;11.396;2023-03-31T01:31:02;99084.66;;;5.51;100.00
48563;BME280;34981;49.104;11.396;2023-03-31T01:36:25;99097.31;;;5.48;100.00
48563;BME280;34981;49.104;11.396;2023-03-31T01:39:06;99097.00;;;5.52;100.00
48563;BME280;34981;49.104;11.396;2023-03-31T01:41:42;99089.00;;;5.52;100.00
48563;BME280;34981;49.104;11.396;2023-03-31T01:52:33;99078.31;;;5.52;100.00
48563;BME280;34981;49.104;11.396;2023-03-31T01:55:03;99066.97;;;5.49;100.00
48563;BME280;34981;49.104;11.396;2023-03-31T01:57:36;99065.66;;;5.54;100.00
48563;BME280;34981;49.104;11.396;2023-03-31T02:02:44;99088.00;;;5.53;100.00
48563;BME280;34981;49.104;11.396;2023-03-31T02:05:16;99086.00;;;5.55;100.00
48563;BME280;34981;49.104;11.396;2023-03-31T02:07:55;99096.69;;;5.55;100.00
48563;BME280;34981;49.104;11.396;2023-03-31T02:10:24;99087.66;;;5.56;100.00
48563;BME280;34981;49.104;11.396;2023-03-31T02:12:58;99097.19;;;5.58;100.00
48563;BME280;34981;49.104;11.396;2023-03-31T02:15:27;99104.03;;;5.61;100.00
48563;BME280;34981;49.104;11.396;2023-03-31T02:17:57;99108.88;;;5.65;100.00
48563;BME280;34981;49.104;11.396;2023-03-31T02:20:26;99098.06;;;5.67;100.00
48563;BME280;34981;49.104;11.396;2023-03-31T02:22:55;99108.06;;;5.73;100.00
48563;BME280;34981;49.104;11.396;2023-03-31T02:25:24;99111.28;;;5.76;100.00
48563;BME280;34981;49.104;11.396;2023-03-31T02:27:59;99091.06;;;5.74;100.00
48563;BME280;34981;49.104;11.396;2023-03-31T02:30:29;99095.59;;;5.81;100.00
48563;BME280;34981;49.104;11.396;2023-03-31T02:32:57;99094.91;;;5.79;100.00
48563;BME280;34981;49.104;11.396;2023-03-31T02:35:25;99094.25;;;5.85;100.00
48563;BME280;34981;49.104;11.396;2023-03-31T02:37:56;99086.97;;;5.88;100.00
48563;BME280;34981;49.104;11.396;2023-03-31T02:40:25;99082.59;;;5.86;100.00
48563;BME280;34981;49.104;11.396;2023-03-31T02:42:58;99085.81;;;5.90;100.00
48563;BME280;34981;49.104;11.396;2023-03-31T02:45:44;99091.66;;;5.94;100.00
48563;BME280;34981;49.104;11.396;2023-03-31T02:48:14;99081.16;;;6.00;100.00
48563;BME280;34981;49.104;11.396;2023-03-31T02:53:38;99080.00;;;6.11;100.00
48563;BME280;34981;49.104;11.396;2023-03-31T02:58:43;99093.00;;;6.14;100.00
48563;BME280;34981;49.104;11.396;2023-03-31T03:09:14;99051.66;;;6.26;100.00
48563;BME280;34981;49.104;11.396;2023-03-31T03:14:41;99030.13;;;6.28;100.00
48563;BME280;34981;49.104;11.396;2023-03-31T03:17:15;99031.44;;;6.32;100.00
48563;BME280;34981;49.104;11.396;2023-03-31T03:19:49;99034.44;;;6.37;100.00
48563;BME280;34981;49.104;11.396;2023-03-31T03:22:16;99034.94;;;6.40;100.00
48563;BME280;34981;49.104;11.396;2023-03-31T03:24:43;99032.44;;;6.39;100.00
48563;BME280;34981;49.104;11.396;2023-03-31T03:27:10;99031.13;;;6.43;100.00
48563;BME280;34981;49.104;11.396;2023-03-31T03:29:38;99033.78;;;6.43;100.00
48563;BME280;34981;49.104;11.396;2023-03-31T03:32:05;99034.78;;;6.42;100.00
48563;BME280;34981;49.104;11.396;2023-03-31T03:34:32;99031.75;;;6.45;100.00
48563;BME280;34981;49.104;11.396;2023-03-31T03:36:59;99023.91;;;6.43;100.00
48563;BME280;34981;49.104;11.396;2023-03-31T03:39:26;99023.25;;;6.49;100.00
48563;BME280;34981;49.104;11.396;2023-03-31T03:41:53;99021.38;;;6.58;100.00
48563;BME280;34981;49.104;11.396;2023-03-31T03:44:20;99023.72;;;6.61;100.00
48563;BME280;34981;49.104;11.396;2023-03-31T03:46:47;99013.19;;;6.59;100.00
48563;BME280;34981;49.104;11.396;2023-03-31T03:49:15;99010.38;;;6.61;100.00
48563;BME280;34981;49.104;11.396;2023-03-31T03:51:42;99013.88;;;6.61;100.00
48563;BME280;34981;49.104;11.396;2023-03-31T03:54:09;99000.84;;;6.58;100.00
48563;BME280;34981;49.104;11.396;2023-03-31T03:56:36;99000.50;;;6.61;100.00
48563;BME280;34981;49.104;11.396;2023-03-31T03:59:03;99000.00;;;6.58;100.00
48563;BME280;34981;49.104;11.396;2023-03-31T04:01:30;99000.84;;;6.58;100.00
48563;BME280;34981;49.104;11.396;2023-03-31T04:03:57;98988.66;;;6.56;100.00
48563;BME280;34981;49.104;11.396;2023-03-31T04:06:24;98996.69;;;6.56;100.00
48563;BME280;34981;49.104;11.396;2023-03-31T04:08:52;98993.00;;;6.57;100.00
48563;BME280;34981;49.104;11.396;2023-03-31T04:11:19;98986.63;;;6.58;100.00
48563;BME280;34981;49.104;11.396;2023-03-31T04:13:46;98983.78;;;6.59;100.00
48563;BME280;34981;49.104;11.396;2023-03-31T04:16:13;98977.97;;;6.56;100.00
48563;BME280;34981;49.104;11.396;2023-03-31T04:18:40;98979.31;;;6.52;100.00
48563;BME280;34981;49.104;11.396;2023-03-31T04:21:09;98971.97;;;6.54;100.00
48563;BME280;34981;49.104;11.396;2023-03-31T04:23:38;98964.78;;;6.54;100.00
48563;BME280;34981;49.104;11.396;2023-03-31T04:26:12;98953.91;;;6.56;100.00
48563;BME280;34981;49.104;11.396;2023-03-31T04:28:40;98953.75;;;6.57;100.00
48563;BME280;34981;49.104;11.396;2023-03-31T04:31:09;98946.53;;;6.58;100.00
48563;BME280;34981;49.104;11.396;2023-03-31T04:33:41;98941.69;;;6.61;100.00
48563;BME280;34981;49.104;11.396;2023-03-31T04:36:11;98941.69;;;6.61;100.00
48563;BME280;34981;49.104;11.396;2023-03-31T04:38:48;98932.84;;;6.61;100.00
48563;BME280;34981;49.104;11.396;2023-03-31T04:41:22;98924.16;;;6.59;100.00
48563;BME280;34981;49.104;11.396;2023-03-31T04:43:50;98921.84;;;6.56;100.00
48563;BME280;34981;49.104;11.396;2023-03-31T04:46:17;98898.97;;;6.53;100.00
48563;BME280;34981;49.104;11.396;2023-03-31T04:48:44;98879.41;;;6.53;100.00
48563;BME280;34981;49.104;11.396;2023-03-31T04:51:11;98867.91;;;6.52;100.00
48563;BME280;34981;49.104;11.396;2023-03-31T04:53:41;98862.53;;;6.52;100.00
48563;BME280;34981;49.104;11.396;2023-03-31T04:56:08;98865.38;;;6.51;100.00
48563;BME280;34981;49.104;11.396;2023-03-31T04:58:35;98860.03;;;6.51;100.00
48563;BME280;34981;49.104;11.396;2023-03-31T05:01:03;98854.06;;;6.49;100.00
48563;BME280;34981;49.104;11.396;2023-03-31T05:03:32;98854.22;;;6.47;100.00
48563;BME280;34981;49.104;11.396;2023-03-31T05:06:00;98849.03;;;6.46;100.00
48563;BME280;34981;49.104;11.396;2023-03-31T05:08:27;98848.88;;;6.47;100.00
48563;BME280;34981;49.104;11.396;2023-03-31T05:10:55;98837.34;;;6.47;100.00
48563;BME280;34981;49.104;11.396;2023-03-31T05:13:22;98831.50;;;6.43;100.00
48563;BME280;34981;49.104;11.396;2023-03-31T05:15:49;98825.38;;;6.43;100.00
48563;BME280;34981;49.104;11.396;2023-03-31T05:18:17;98829.88;;;6.42;100.00
48563;BME280;34981;49.104;11.396;2023-03-31T05:20:44;98831.72;;;6.42;100.00
48563;BME280;34981;49.104;11.396;2023-03-31T05:23:12;98821.19;;;6.40;100.00
48563;BME280;34981;49.104;11.396;2023-03-31T05:25:39;98818.69;;;6.39;100.00
48563;BME280;34981;49.104;11.396;2023-03-31T05:28:08;98809.66;;;6.40;100.00
48563;BME280;34981;49.104;11.396;2023-03-31T05:30:36;98816.50;;;6.42;100.00
48563;BME280;34981;49.104;11.396;2023-03-31T05:33:03;98809.34;;;6.43;100.00
48563;BME280;34981;49.104;11.396;2023-03-31T05:35:30;98816.31;;;6.44;100.00
48563;BME280;34981;49.104;11.396;2023-03-31T05:37:57;98805.63;;;6.44;100.00
48563;BME280;34981;49.104;11.396;2023-03-31T05:40:24;98801.94;;;6.45;100.00
48563;BME280;34981;49.104;11.396;2023-03-31T05:42:51;98808.13;;;6.45;100.00
48563;BME280;34981;49.104;11.396;2023-03-31T05:45:18;98795.78;;;6.44;100.00
48563;BME280;34981;49.104;11.396;2023-03-31T05:47:46;98795.59;;;6.46;100.00
48563;BME280;34981;49.104;11.396;2023-03-31T05:50:13;98793.94;;;6.45;100.00
48563;BME280;34981;49.104;11.396;2023-03-31T05:52:40;98791.94;;;6.47;100.00
48563;BME280;34981;49.104;11.396;2023-03-31T05:55:08;98791.94;;;6.47;100.00
48563;BME280;34981;49.104;11.396;2023-03-31T05:57:35;98777.56;;;6.48;100.00
48563;BME280;34981;49.104;11.396;2023-03-31T06:00:03;98786.88;;;6.52;100.00
48563;BME280;34981;49.104;11.396;2023-03-31T06:02:33;98790.22;;;6.54;100.00
48563;BME280;34981;49.104;11.396;2023-03-31T06:05:01;98793.56;;;6.56;100.00
48563;BME280;34981;49.104;11.396;2023-03-31T06:07:29;98788.22;;;6.56;100.00
48563;BME280;34981;49.104;11.396;2023-03-31T06:09:56;98792.56;;;6.57;100.00
48563;BME280;34981;49.104;11.396;2023-03-31T06:12:23;98792.38;;;6.58;100.00
48563;BME280;34981;49.104;11.396;2023-03-31T06:14:50;98779.84;;;6.59;100.00
48563;BME280;34981;49.104;11.396;2023-03-31T06:17:17;98769.81;;;6.61;100.00
48563;BME280;34981;49.104;11.396;2023-03-31T06:19:44;98769.63;;;6.62;100.00
48563;BME280;34981;49.104;11.396;2023-03-31T06:22:12;98777.28;;;6.65;100.00
48563;BME280;34981;49.104;11.396;2023-03-31T06:24:39;98777.13;;;6.67;100.00
48563;BME280;34981;49.104;11.396;2023-03-31T06:27:06;98782.75;;;6.72;100.00
48563;BME280;34981;49.104;11.396;2023-03-31T06:29:33;98786.94;;;6.75;100.00
48563;BME280;34981;49.104;11.396;2023-03-31T06:32:00;98787.78;;;6.75;100.00
48563;BME280;34981;49.104;11.396;2023-03-31T06:34:28;98785.09;;;6.75;100.00
48563;BME280;34981;49.104;11.396;2023-03-31T06:36:55;98787.44;;;6.78;100.00
48563;BME280;34981;49.104;11.396;2023-03-31T06:39:22;98781.88;;;6.80;100.00
48563;BME280;34981;49.104;11.396;2023-03-31T06:41:52;98789.91;;;6.80;100.00
48563;BME280;34981;49.104;11.396;2023-03-31T06:44:25;98784.22;;;6.83;100.00
48563;BME280;34981;49.104;11.396;2023-03-31T06:46:52;98783.38;;;6.82;100.00
48563;BME280;34981;49.104;11.396;2023-03-31T06:49:20;98796.56;;;6.84;100.00
48563;BME280;34981;49.104;11.396;2023-03-31T06:51:47;98793.75;;;6.85;100.00
48563;BME280;34981;49.104;11.396;2023-03-31T06:54:14;98797.03;;;6.87;100.00
48563;BME280;34981;49.104;11.396;2023-03-31T06:56:42;98798.72;;;6.88;100.00
48563;BME280;34981;49.104;11.396;2023-03-31T06:59:09;98804.91;;;6.89;100.00
48563;BME280;34981;49.104;11.396;2023-03-31T07:01:37;98805.72;;;6.89;100.00
48563;BME280;34981;49.104;11.396;2023-03-31T07:04:05;98795.03;;;6.89;100.00
48563;BME280;34981;49.104;11.396;2023-03-31T07:06:33;98809.25;;;6.90;100.00
48563;BME280;34981;49.104;11.396;2023-03-31T07:09:00;98798.72;;;6.88;100.00
48563;BME280;34981;49.104;11.396;2023-03-31T07:11:27;98798.53;;;6.90;100.00
48563;BME280;34981;49.104;11.396;2023-03-31T07:13:54;98809.06;;;6.91;100.00
48563;BME280;34981;49.104;11.396;2023-03-31T07:16:21;98810.75;;;6.92;100.00
48563;BME280;34981;49.104;11.396;2023-03-31T07:18:49;98817.94;;;6.92;100.00
48563;BME280;34981;49.104;11.396;2023-03-31T07:21:19;98826.78;;;6.92;100.00
48563;BME280;34981;49.104;11.396;2023-03-31T07:23:47;98815.72;;;6.95;100.00
48563;BME280;34981;49.104;11.396;2023-03-31T07:26:14;98816.22;;;6.99;100.00
48563;BME280;34981;49.104;11.396;2023-03-31T07:28:41;98817.50;;;7.03;100.00
48563;BME280;34981;49.104;11.396;2023-03-31T07:31:09;98830.38;;;7.08;100.00
48563;BME280;34981;49.104;11.396;2023-03-31T07:33:37;98822.34;;;7.08;100.00
48563;BME280;34981;49.104;11.396;2023-03-31T07:36:04;98820.13;;;7.11;100.00
48563;BME280;34981;49.104;11.396;2023-03-31T07:38:40;98811.75;;;7.14;100.00
48563;BME280;34981;49.104;11.396;2023-03-31T07:41:11;98807.25;;;7.15;100.00
48563;BME280;34981;49.104;11.396;2023-03-31T07:43:39;98805.41;;;7.15;100.00
48563;BME280;34981;49.104;11.396;2023-03-31T07:46:12;98806.25;;;7.16;100.00
48563;BME280;34981;49.104;11.396;2023-03-31T07:48:39;98794.72;;;7.15;100.00
48563;BME280;34981;49.104;11.396;2023-03-31T07:51:07;98798.38;;;7.14;100.00
48563;BME280;34981;49.104;11.396;2023-03-31T07:53:35;98791.00;;;7.16;100.00
48563;BME280;34981;49.104;11.396;2023-03-31T07:56:03;98783.63;;;7.18;100.00
48563;BME280;34981;49.104;11.396;2023-03-31T07:58:30;98776.63;;;7.17;100.00
48563;BME280;34981;49.104;11.396;2023-03-31T08:00:57;98768.41;;;7.19;100.00
48563;BME280;34981;49.104;11.396;2023-03-31T08:03:24;98755.22;;;7.17;100.00
48563;BME280;34981;49.104;11.396;2023-03-31T08:05:52;98747.84;;;7.19;100.00
48563;BME280;34981;49.104;11.396;2023-03-31T08:08:20;98757.16;;;7.23;100.00
48563;BME280;34981;49.104;11.396;2023-03-31T08:10:48;98759.84;;;7.23;100.00
48563;BME280;34981;49.104;11.396;2023-03-31T08:13:15;98749.97;;;7.24;100.00
48563;BME280;34981;49.104;11.396;2023-03-31T08:15:42;98739.28;;;7.24;100.00
48563;BME280;34981;49.104;11.396;2023-03-31T08:18:09;98716.22;;;7.23;100.00
48563;BME280;34981;49.104;11.396;2023-03-31T08:20:36;98709.00;;;7.23;100.00
48563;BME280;34981;49.104;11.396;2023-03-31T08:23:05;98713.19;;;7.26;100.00
48563;BME280;34981;49.104;11.396;2023-03-31T08:25:35;98706.16;;;7.25;100.00
48563;BME280;34981;49.104;11.396;2023-03-31T08:28:02;98713.34;;;7.24;100.00
48563;BME280;34981;49.104;11.396;2023-03-31T08:30:29;98717.53;;;7.27;100.00
48563;BME280;34981;49.104;11.396;2023-03-31T08:32:56;98735.91;;;7.30;100.00
48563;BME280;34981;49.104;11.396;2023-03-31T08:35:23;98759.97;;;7.30;100.00
48563;BME280;34981;49.104;11.396;2023-03-31T08:37:50;98775.19;;;7.29;100.00
48563;BME280;34981;49.104;11.396;2023-03-31T08:40:19;98779.34;;;7.32;100.00
48563;BME280;34981;49.104;11.396;2023-03-31T08:42:48;98801.97;;;7.29;100.00
48563;BME280;34981;49.104;11.396;2023-03-31T08:45:19;98784.34;;;7.35;100.00
48563;BME280;34981;49.104;11.396;2023-03-31T08:47:49;98792.00;;;7.38;100.00
48563;BME280;34981;49.104;11.396;2023-03-31T08:50:19;98783.78;;;7.39;100.00
48563;BME280;34981;49.104;11.396;2023-03-31T08:52:49;98761.47;;;7.47;100.00
48563;BME280;34981;49.104;11.396;2023-03-31T08:55:21;98763.00;;;7.64;100.00
48563;BME280;34981;49.104;11.396;2023-03-31T09:00:17;98733.31;;;7.89;100.00
48563;BME280;34981;49.104;11.396;2023-03-31T09:02:48;98717.59;;;7.86;100.00
48563;BME280;34981;49.104;11.396;2023-03-31T09:10:34;98704.09;;;7.94;100.00
48563;BME280;34981;49.104;11.396;2023-03-31T09:15:52;98678.59;;;7.98;100.00
48563;BME280;34981;49.104;11.396;2023-03-31T09:20:51;98673.91;;;8.00;100.00
48563;BME280;34981;49.104;11.396;2023-03-31T09:23:33;98650.81;;;7.99;100.00
48563;BME280;34981;49.104;11.396;2023-03-31T09:26:02;98623.38;;;7.97;100.00
48563;BME280;34981;49.104;11.396;2023-03-31T09:28:33;98669.19;;;8.02;100.00
48563;BME280;34981;49.104;11.396;2023-03-31T09:31:03;98668.25;;;8.09;100.00
48563;BME280;34981;49.104;11.396;2023-03-31T09:33:34;98683.94;;;8.12;100.00
48563;BME280;34981;49.104;11.396;2023-03-31T09:36:07;98677.81;;;8.18;100.00
48563;BME280;34981;49.104;11.396;2023-03-31T09:38:40;98707.56;;;8.53;100.00
48563;BME280;34981;49.104;11.396;2023-03-31T09:41:08;98731.97;;;8.79;100.00
48563;BME280;34981;49.104;11.396;2023-03-31T09:43:35;98728.63;;;8.77;100.00
48563;BME280;34981;49.104;11.396;2023-03-31T09:46:05;98727.91;;;8.83;100.00
48563;BME280;34981;49.104;11.396;2023-03-31T09:48:42;98749.03;;;9.14;100.00
48563;BME280;34981;49.104;11.396;2023-03-31T09:51:17;98740.72;;;9.30;100.00
48563;BME280;34981;49.104;11.396;2023-03-31T09:53:51;98750.78;;;9.50;100.00
48563;BME280;34981;49.104;11.396;2023-03-31T09:59:05;98752.00;;;10.03;100.00
48563;BME280;34981;49.104;11.396;2023-03-31T10:01:32;98763.31;;;10.20;100.00
48563;BME280;34981;49.104;11.396;2023-03-31T10:04:01;98762.78;;;10.37;100.00
48563;BME280;34981;49.104;11.396;2023-03-31T10:06:33;98745.56;;;10.32;100.00
48563;BME280;34981;49.104;11.396;2023-03-31T10:09:06;98729.63;;;10.30;100.00
48563;BME280;34981;49.104;11.396;2023-03-31T10:11:36;98756.28;;;10.66;100.00
48563;BME280;34981;49.104;11.396;2023-03-31T10:14:04;98737.38;;;10.53;100.00
48563;BME280;34981;49.104;11.396;2023-03-31T10:16:33;98727.09;;;10.63;100.00
48563;BME280;34981;49.104;11.396;2023-03-31T10:19:17;98714.19;;;10.52;100.00
48563;BME280;34981;49.104;11.396;2023-03-31T10:21:46;98686.47;;;10.45;100.00
48563;BME280;34981;49.104;11.396;2023-03-31T10:24:17;98668.41;;;10.26;100.00
48563;BME280;34981;49.104;11.396;2023-03-31T10:26:47;98664.91;;;10.32;100.00
48563;BME280;34981;49.104;11.396;2023-03-31T10:29:17;98669.03;;;10.28;100.00
48563;BME280;34981;49.104;11.396;2023-03-31T10:31:47;98653.31;;;10.25;100.00
48563;BME280;34981;49.104;11.396;2023-03-31T10:34:15;98655.81;;;10.33;100.00
48563;BME280;34981;49.104;11.396;2023-03-31T10:36:45;98661.22;;;10.46;100.00
48563;BME280;34981;49.104;11.396;2023-03-31T10:39:14;98685.97;;;10.96;100.00
48563;BME280;34981;49.104;11.396;2023-03-31T10:41:41;98689.09;;;11.12;100.00
48563;BME280;34981;49.104;11.396;2023-03-31T10:44:28;98669.63;;;11.10;100.00
48563;BME280;34981;49.104;11.396;2023-03-31T10:46:56;98651.63;;;11.24;100.00
48563;BME280;34981;49.104;11.396;2023-03-31T10:49:29;98658.03;;;11.23;100.00
48563;BME280;34981;49.104;11.396;2023-03-31T10:51:57;98663.00;;;11.39;100.00
48563;BME280;34981;49.104;11.396;2023-03-31T10:54:25;98632.97;;;11.09;100.00
48563;BME280;34981;49.104;11.396;2023-03-31T10:59:41;98601.47;;;10.97;100.00
48563;BME280;34981;49.104;11.396;2023-03-31T11:15:06;98491.47;;;11.33;100.00
48563;BME280;34981;49.104;11.396;2023-03-31T11:20:40;98459.56;;;11.37;100.00
48563;BME280;34981;49.104;11.396;2023-03-31T11:26:02;98476.34;;;11.90;100.00
48563;BME280;34981;49.104;11.396;2023-03-31T11:28:33;98451.97;;;12.03;100.00
48563;BME280;34981;49.104;11.396;2023-03-31T11:36:49;98421.72;;;12.01;100.00
48563;BME280;34981;49.104;11.396;2023-03-31T11:39:01;98402.41;;;12.04;100.00
48563;BME280;34981;49.104;11.396;2023-03-31T11:44:30;98367.13;;;12.05;100.00
48563;BME280;34981;49.104;11.396;2023-03-31T11:47:05;98381.16;;;12.14;100.00
48563;BME280;34981;49.104;11.396;2023-03-31T11:49:36;98358.56;;;12.15;100.00
48563;BME280;34981;49.104;11.396;2023-03-31T11:52:15;98338.78;;;12.21;100.00
48563;BME280;34981;49.104;11.396;2023-03-31T11:54:53;98319.16;;;12.14;100.00
48563;BME280;34981;49.104;11.396;2023-03-31T11:57:24;98289.66;;;12.19;100.00
48563;BME280;34981;49.104;11.396;2023-03-31T11:59:57;98239.75;;;12.10;100.00
48563;BME280;34981;49.104;11.396;2023-03-31T12:05:04;98211.97;;;12.09;100.00
48563;BME280;34981;49.104;11.396;2023-03-31T12:07:34;98196.31;;;12.00;100.00
48563;BME280;34981;49.104;11.396;2023-03-31T12:10:18;98189.59;;;12.09;100.00
48563;BME280;34981;49.104;11.396;2023-03-31T12:12:57;98184.47;;;12.37;100.00
48563;BME280;34981;49.104;11.396;2023-03-31T12:15:30;98167.03;;;12.70;100.00
48563;BME280;34981;49.104;11.396;2023-03-31T12:17:59;98134.56;;;12.46;100.00
48563;BME280;34981;49.104;11.396;2023-03-31T12:22:54;98055.19;;;12.66;100.00
48563;BME280;34981;49.104;11.396;2023-03-31T12:25:23;98020.44;;;12.46;100.00
48563;BME280;34981;49.104;11.396;2023-03-31T12:27:53;97989.22;;;12.38;100.00
48563;BME280;34981;49.104;11.396;2023-03-31T12:30:27;97943.72;;;12.30;100.00
48563;BME280;34981;49.104;11.396;2023-03-31T12:33:11;97927.91;;;12.45;100.00
48563;BME280;34981;49.104;11.396;2023-03-31T12:40:55;97816.81;;;12.72;100.00
48563;BME280;34981;49.104;11.396;2023-03-31T12:43:27;97801.66;;;13.22;100.00
48563;BME280;34981;49.104;11.396;2023-03-31T12:46:02;97746.56;;;12.95;100.00
48563;BME280;34981;49.104;11.396;2023-03-31T12:53:43;97568.56;;;12.72;100.00
48563;BME280;34981;49.104;11.396;2023-03-31T12:56:14;97565.13;;;12.93;100.00
48563;BME280;34981;49.104;11.396;2023-03-31T12:58:42;97524.91;;;12.75;100.00
48563;BME280;34981;49.104;11.396;2023-03-31T13:01:17;97544.69;;;12.97;100.00
48563;BME280;34981;49.104;11.396;2023-03-31T13:08:52;97442.72;;;12.66;100.00
48563;BME280;34981;49.104;11.396;2023-03-31T13:13:59;97597.97;;;9.87;100.00
48563;BME280;34981;49.104;11.396;2023-03-31T13:16:28;97665.41;;;9.36;100.00
48563;BME280;34981;49.104;11.396;2023-03-31T13:18:56;97718.47;;;9.09;100.00
48563;BME280;34981;49.104;11.396;2023-03-31T13:21:23;97730.13;;;8.58;100.00
48563;BME280;34981;49.104;11.396;2023-03-31T13:23:51;97785.00;;;8.49;100.00
48563;BME280;34981;49.104;11.396;2023-03-31T13:26:39;97795.09;;;8.54;100.00
48563;BME280;34981;49.104;11.396;2023-03-31T13:34:38;97798.03;;;8.19;100.00
48563;BME280;34981;49.104;11.396;2023-03-31T13:40:12;97861.53;;;8.32;100.00
48563;BME280;34981;49.104;11.396;2023-03-31T13:45:19;97937.13;;;8.74;100.00
48563;BME280;34981;49.104;11.396;2023-03-31T14:09:06;98078.69;;;9.69;100.00
48563;BME280;34981;49.104;11.396;2023-03-31T14:11:33;98066.34;;;9.55;100.00
48563;BME280;34981;49.104;11.396;2023-03-31T14:14:02;98062.41;;;9.51;100.00
48563;BME280;34981;49.104;11.396;2023-03-31T14:16:31;98088.59;;;9.68;100.00
48563;BME280;34981;49.104;11.396;2023-03-31T14:21:50;98055.13;;;9.71;100.00
48563;BME280;34981;49.104;11.396;2023-03-31T14:24:31;98064.19;;;9.76;100.00
48563;BME280;34981;49.104;11.396;2023-03-31T14:32:41;97987.44;;;9.56;100.00
48563;BME280;34981;49.104;11.396;2023-03-31T14:37:32;97979.19;;;9.51;100.00
48563;BME280;34981;49.104;11.396;2023-03-31T14:40:00;97974.25;;;9.48;100.00
48563;BME280;34981;49.104;11.396;2023-03-31T14:42:38;97975.66;;;9.57;100.00
48563;BME280;34981;49.104;11.396;2023-03-31T14:45:14;97978.19;;;9.83;100.00
48563;BME280;34981;49.104;11.396;2023-03-31T14:47:50;97966.22;;;9.86;100.00
48563;BME280;34981;49.104;11.396;2023-03-31T14:50:18;97973.25;;;9.80;100.00
48563;BME280;34981;49.104;11.396;2023-03-31T14:52:46;97967.47;;;9.83;100.00
48563;BME280;34981;49.104;11.396;2023-03-31T14:55:14;97951.50;;;9.57;100.00
48563;BME280;34981;49.104;11.396;2023-03-31T14:57:42;97957.91;;;9.56;100.00
48563;BME280;34981;49.104;11.396;2023-03-31T15:00:11;97960.50;;;9.69;100.00
48563;BME280;34981;49.104;11.396;2023-03-31T15:02:41;97948.16;;;9.61;100.00
48563;BME280;34981;49.104;11.396;2023-03-31T15:07:48;97933.28;;;9.59;100.00
48563;BME280;34981;49.104;11.396;2023-03-31T15:10:17;97938.25;;;9.62;100.00
48563;BME280;34981;49.104;11.396;2023-03-31T15:12:46;97941.97;;;9.61;100.00
48563;BME280;34981;49.104;11.396;2023-03-31T15:15:14;97946.50;;;9.60;100.00
48563;BME280;34981;49.104;11.396;2023-03-31T15:17:43;97949.72;;;9.75;100.00
48563;BME280;34981;49.104;11.396;2023-03-31T15:22:54;97922.56;;;9.59;100.00
48563;BME280;34981;49.104;11.396;2023-03-31T15:25:23;97926.69;;;9.61;100.00
48563;BME280;34981;49.104;11.396;2023-03-31T15:27:54;97913.09;;;9.50;100.00
48563;BME280;34981;49.104;11.396;2023-03-31T15:30:24;97914.50;;;9.59;100.00
48563;BME280;34981;49.104;11.396;2023-03-31T15:32:53;97897.44;;;9.47;100.00
48563;BME280;34981;49.104;11.396;2023-03-31T15:35:40;97858.66;;;9.36;100.00